Time;durP1;ratioP1;P1;durP2;ratioP2;P2;SDS_P1;SDS_P2;PMS_P1;PMS_P2;Temp;Humidity;BMP_temperature;BMP_pressure;BME280_temperature;BME280_humidity;BME280_pressure;Samples;Min_cycle;Max_cycle;Signal;HPM_P1;HPM_P2
2021/06/04 00:00:38;;;;;;;11.47;8.73;;;21.10;99.90;;;;;;5079838;28;20292;-52
2021/06/04 00:03:15;;;;;;;11.30;8.07;;;21.00;99.90;;;;;;5079721;28;20210;-49
2021/06/04 00:05:47;;;;;;;13.53;8.07;;;20.80;99.90;;;;;;5078939;28;20195;-49
2021/06/04 00:08:16;;;;;;;11.97;8.60;;;20.60;99.90;;;;;;5079527;28;20191;-49
2021/06/04 00:10:59;;;;;;;12.33;9.57;;;20.80;99.90;;;;;;5076242;28;20224;-51
2021/06/04 00:13:38;;;;;;;10.57;8.10;;;20.70;99.90;;;;;;5087710;28;20198;-50
2021/06/04 00:16:17;;;;;;;10.80;7.80;;;20.50;99.90;;;;;;5081826;28;20259;-52
2021/06/04 00:18:46;;;;;;;9.53;8.10;;;20.40;99.90;;;;;;5077208;28;20686;-50
2021/06/04 00:21:23;;;;;;;12.83;8.13;;;20.40;99.90;;;;;;5079683;28;20233;-49
2021/06/04 00:23:50;;;;;;;10.83;8.27;;;20.00;99.90;;;;;;5078679;28;20217;-50
2021/06/04 00:26:17;;;;;;;16.07;8.20;;;19.70;99.90;;;;;;5060244;28;20523;-50
2021/06/04 00:28:44;;;;;;;15.23;8.37;;;19.40;99.90;;;;;;5080936;28;20204;-49
2021/06/04 00:31:11;;;;;;;12.23;7.90;;;19.40;99.90;;;;;;5080450;28;20278;-50
2021/06/04 00:33:38;;;;;;;11.57;7.70;;;19.70;99.90;;;;;;5057199;28;20281;-49
2021/06/04 00:36:07;;;;;;;11.53;8.03;;;19.90;99.90;;;;;;5077111;28;20773;-49
2021/06/04 00:38:34;;;;;;;13.30;8.47;;;19.80;99.90;;;;;;5080421;28;20236;-50
2021/06/04 00:41:06;;;;;;;17.83;8.87;;;19.60;99.90;;;;;;5055600;28;20258;-50
2021/06/04 00:43:33;;;;;;;10.43;7.97;;;19.50;99.90;;;;;;5080469;28;20256;-49
2021/06/04 00:46:01;;;;;;;11.53;7.80;;;19.60;99.90;;;;;;5078965;28;20245;-50
2021/06/04 00:48:28;;;;;;;12.73;8.77;;;19.30;99.90;;;;;;5079770;28;20317;-51
2021/06/04 00:51:07;;;;;;;13.67;9.00;;;19.20;99.90;;;;;;5062163;28;20212;-53
2021/06/04 00:53:35;;;;;;;14.00;8.87;;;19.30;99.90;;;;;;5076759;28;20242;-51
2021/06/04 00:56:04;;;;;;;10.50;8.47;;;19.50;99.90;;;;;;5076834;28;20386;-51
2021/06/04 00:58:39;;;;;;;9.50;8.23;;;19.70;99.90;;;;;;5082099;28;20202;-51
2021/06/04 01:01:07;;;;;;;11.83;8.50;;;19.80;99.90;;;;;;5076588;28;20226;-51
2021/06/04 01:03:39;;;;;;;12.40;9.33;;;19.70;99.90;;;;;;5061975;28;20199;-51
2021/06/04 01:06:14;;;;;;;10.33;8.23;;;19.40;99.90;;;;;;5078229;28;20231;-54
2021/06/04 01:09:09;;;;;;;12.13;9.33;;;19.10;99.90;;;;;;5080643;28;20637;-51
2021/06/04 01:11:50;;;;;;;12.80;8.67;;;18.80;99.90;;;;;;5076213;28;20249;-51
2021/06/04 01:14:41;;;;;;;13.70;8.90;;;19.00;99.90;;;;;;5074575;28;20677;-51
2021/06/04 01:17:21;;;;;;;12.50;9.30;;;19.30;99.90;;;;;;5080544;28;20230;-51
2021/06/04 01:20:10;;;;;;;17.30;10.00;;;19.40;99.90;;;;;;5078846;28;20204;-51
2021/06/04 01:22:53;;;;;;;11.43;8.63;;;19.50;99.90;;;;;;5076481;28;20720;-51
2021/06/04 01:25:39;;;;;;;12.73;7.93;;;19.60;99.90;;;;;;5075672;28;20202;-51
2021/06/04 01:28:19;;;;;;;12.60;8.47;;;19.70;99.90;;;;;;5080004;28;20315;-53
2021/06/04 01:30:53;;;;;;;13.50;8.73;;;19.80;99.90;;;;;;5080617;28;20979;-51
2021/06/04 01:33:30;;;;;;;11.50;8.40;;;19.70;99.90;;;;;;5077845;28;20337;-51
2021/06/04 01:36:00;;;;;;;11.60;8.30;;;19.80;99.90;;;;;;5079587;28;20300;-51
2021/06/04 01:38:31;;;;;;;12.20;8.53;;;19.80;99.90;;;;;;5083098;28;20236;-51
2021/06/04 01:41:04;;;;;;;12.33;8.90;;;19.70;99.90;;;;;;5077308;28;20203;-51
2021/06/04 01:43:54;;;;;;;18.13;9.40;;;19.70;99.90;;;;;;5079597;28;20247;-51
2021/06/04 01:46:31;;;;;;;12.97;9.53;;;19.60;99.90;;;;;;5061587;28;20584;-51
2021/06/04 01:49:05;;;;;;;10.83;8.53;;;19.60;99.90;;;;;;5075528;28;20243;-54
2021/06/04 01:51:55;;;;;;;13.40;8.80;;;19.50;99.90;;;;;;5079189;28;20235;-52
2021/06/04 01:54:32;;;;;;;12.93;10.10;;;19.60;99.90;;;;;;5078433;28;20738;-52
2021/06/04 01:57:04;;;;;;;14.83;10.03;;;19.50;99.90;;;;;;5082000;28;20246;-52
2021/06/04 01:59:35;;;;;;;14.03;9.67;;;19.40;99.90;;;;;;5077336;28;20319;-52
2021/06/04 02:02:03;;;;;;;13.27;9.87;;;19.30;99.90;;;;;;5079733;28;20201;-52
2021/06/04 02:04:42;;;;;;;14.27;10.33;;;19.20;99.90;;;;;;5081052;28;20227;-51
2021/06/04 02:07:12;;;;;;;14.17;10.33;;;19.10;99.90;;;;;;5063479;28;20219;-52
2021/06/04 02:09:40;;;;;;;16.27;10.57;;;19.30;99.90;;;;;;5078402;28;20197;-52
2021/06/04 02:12:09;;;;;;;16.50;11.50;;;19.00;99.90;;;;;;5067565;28;20198;-52
2021/06/04 02:14:42;;;;;;;16.83;10.80;;;18.90;99.90;;;;;;5084363;28;20234;-52
2021/06/04 02:17:28;;;;;;;14.17;10.70;;;18.80;99.90;;;;;;5085253;28;20225;-52
2021/06/04 02:20:03;;;;;;;15.63;10.10;;;19.00;99.90;;;;;;5080850;28;20532;-52
2021/06/04 02:23:08;;;;;;;12.67;10.30;;;18.80;99.90;;;;;;5082027;28;20213;-52
2021/06/04 02:25:54;;;;;;;17.77;11.33;;;18.60;99.90;;;;;;5059101;28;20572;-52
2021/06/04 02:28:31;;;;;;;14.20;11.37;;;18.40;99.90;;;;;;5083611;28;20206;-52
2021/06/04 02:31:22;;;;;;;15.20;10.57;;;18.30;99.90;;;;;;5079245;28;20202;-52
2021/06/04 02:33:55;;;;;;;20.17;12.93;;;18.20;99.90;;;;;;5081887;28;20197;-52
2021/06/04 02:36:26;;;;;;;16.13;11.53;;;18.20;99.90;;;;;;5082222;28;20237;-51
2021/06/04 02:39:05;;;;;;;15.03;11.77;;;18.20;99.90;;;;;;5083022;28;20533;-52
2021/06/04 02:41:42;;;;;;;15.87;11.80;;;18.10;99.90;;;;;;5081257;28;20226;-52
2021/06/04 02:44:19;;;;;;;20.30;12.30;;;18.20;99.90;;;;;;5078317;28;20712;-51
2021/06/04 02:46:58;;;;;;;16.83;13.07;;;18.30;99.90;;;;;;5082550;28;20199;-52
2021/06/04 02:49:28;;;;;;;15.43;11.67;;;18.40;99.90;;;;;;5082967;28;20209;-52
2021/06/04 02:52:29;;;;;;;16.37;12.00;;;18.40;99.90;;;;;;5083855;28;20199;-52
2021/06/04 02:54:57;;;;;;;18.67;13.10;;;18.50;99.90;;;;;;5067142;28;20682;-51
2021/06/04 02:57:28;;;;;;;16.90;12.83;;;18.30;99.90;;;;;;5088606;28;20279;-52
2021/06/04 02:59:55;;;;;;;16.43;12.60;;;18.50;99.90;;;;;;5088681;28;20199;-52
2021/06/04 03:02:26;;;;;;;20.13;13.50;;;18.60;99.90;;;;;;5080198;28;20279;-52
2021/06/04 03:04:56;;;;;;;18.27;12.50;;;18.50;99.90;;;;;;5080431;28;20190;-51
2021/06/04 03:07:30;;;;;;;16.13;12.13;;;18.60;99.90;;;;;;5086031;28;20202;-52
2021/06/04 03:09:59;;;;;;;15.83;12.53;;;18.50;99.90;;;;;;5080969;28;20963;-52
2021/06/04 03:12:28;;;;;;;17.57;12.60;;;18.50;99.90;;;;;;5080535;28;20191;-52
2021/06/04 03:14:57;;;;;;;19.20;12.93;;;18.50;99.90;;;;;;5075670;28;20311;-52
2021/06/04 03:17:27;;;;;;;19.00;12.60;;;18.50;99.90;;;;;;5079831;28;21126;-51
2021/06/04 03:19:54;;;;;;;21.17;13.10;;;18.50;99.90;;;;;;5081218;28;20590;-52
2021/06/04 03:22:27;;;;;;;17.30;13.13;;;18.60;99.90;;;;;;5062915;28;20277;-52
2021/06/04 03:24:57;;;;;;;22.43;13.90;;;18.50;99.90;;;;;;5079977;28;20303;-51
2021/06/04 03:27:24;;;;;;;19.70;13.53;;;18.50;99.90;;;;;;5063736;28;20212;-52
2021/06/04 03:29:52;;;;;;;18.37;13.83;;;18.60;99.90;;;;;;5083598;28;20217;-52
2021/06/04 03:32:19;;;;;;;19.93;13.67;;;18.60;99.90;;;;;;5078285;28;20223;-52
2021/06/04 03:34:47;;;;;;;22.03;12.87;;;18.50;99.90;;;;;;5081250;28;20245;-52
2021/06/04 03:37:18;;;;;;;18.40;12.83;;;18.50;99.90;;;;;;5082803;28;20590;-54
2021/06/04 03:39:46;;;;;;;20.77;14.70;;;18.50;99.90;;;;;;5081068;28;20274;-52
2021/06/04 03:42:21;;;;;;;20.00;13.30;;;18.40;99.90;;;;;;5077358;28;20198;-51
2021/06/04 03:44:49;;;;;;;18.77;13.47;;;18.40;99.90;;;;;;5081506;28;20334;-51
2021/06/04 03:47:16;;;;;;;20.73;13.80;;;18.40;99.90;;;;;;5058344;28;20284;-51
2021/06/04 03:49:44;;;;;;;21.67;14.00;;;18.40;99.90;;;;;;5045463;28;20217;-52
2021/06/04 03:52:14;;;;;;;18.30;13.63;;;18.40;99.90;;;;;;5060269;28;20270;-52
2021/06/04 03:54:44;;;;;;;18.47;14.00;;;18.40;99.90;;;;;;5060198;28;20241;-51
2021/06/04 03:57:14;;;;;;;21.27;13.30;;;18.40;99.90;;;;;;5063897;28;20230;-51
2021/06/04 03:59:43;;;;;;;21.27;14.07;;;18.40;99.90;;;;;;5062172;28;20207;-52
2021/06/04 04:02:13;;;;;;;21.50;14.13;;;18.10;99.90;;;;;;5045970;28;20233;-52
2021/06/04 04:04:41;;;;;;;20.33;14.73;;;17.80;99.90;;;;;;5056232;28;20210;-51
2021/06/04 04:07:09;;;;;;;20.50;14.17;;;17.80;99.90;;;;;;5062550;28;20232;-51
2021/06/04 04:09:36;;;;;;;22.10;15.50;;;17.90;99.90;;;;;;5055279;28;20252;-52
2021/06/04 04:12:04;;;;;;;19.73;14.70;;;18.10;99.90;;;;;;5061037;28;20893;-52
2021/06/04 04:14:31;;;;;;;24.40;14.90;;;18.20;99.90;;;;;;5059384;28;20203;-52
2021/06/04 04:16:58;;;;;;;21.07;14.03;;;18.30;99.90;;;;;;5061057;28;20278;-52
2021/06/04 04:19:25;;;;;;;23.53;15.10;;;18.30;99.90;;;;;;5062866;28;20644;-54
2021/06/04 04:21:55;;;;;;;22.70;14.67;;;18.40;99.90;;;;;;5063593;28;20572;-51
2021/06/04 04:24:27;;;;;;;21.03;15.37;;;18.30;99.90;;;;;;5062154;28;20325;-53
2021/06/04 04:26:54;;;;;;;20.77;14.93;;;18.30;99.90;;;;;;5059970;28;20234;-53
2021/06/04 04:29:21;;;;;;;20.13;14.27;;;18.40;99.90;;;;;;5060135;28;20228;-53
2021/06/04 04:31:54;;;;;;;23.00;14.67;;;18.50;99.90;;;;;;5060038;28;20609;-53
2021/06/04 04:34:23;;;;;;;19.53;13.73;;;18.60;99.90;;;;;;5060883;28;20275;-53
2021/06/04 04:36:54;;;;;;;21.60;15.27;;;18.60;99.90;;;;;;5061620;28;20291;-53
2021/06/04 04:39:30;;;;;;;21.20;14.57;;;18.60;99.90;;;;;;5038811;28;20304;-53
2021/06/04 04:41:57;;;;;;;29.57;15.27;;;18.70;99.90;;;;;;5062295;28;20275;-53
2021/06/04 04:44:29;;;;;;;22.67;15.70;;;18.60;99.90;;;;;;5062789;28;20212;-53
2021/06/04 04:46:57;;;;;;;21.27;15.60;;;18.60;99.90;;;;;;5064041;28;20339;-53
2021/06/04 04:49:25;;;;;;;22.07;14.73;;;18.80;99.90;;;;;;5082445;28;20323;-53
2021/06/04 04:51:52;;;;;;;23.57;15.87;;;18.90;99.90;;;;;;5083285;28;20288;-53
2021/06/04 04:54:20;;;;;;;26.00;15.27;;;19.00;99.90;;;;;;5076807;28;20304;-53
2021/06/04 04:56:48;;;;;;;21.93;14.77;;;19.00;99.90;;;;;;5065176;28;20200;-53
2021/06/04 04:59:16;;;;;;;22.87;15.10;;;19.00;99.90;;;;;;5077924;28;20332;-53
2021/06/04 05:01:43;;;;;;;26.63;15.53;;;19.10;99.90;;;;;;5082578;28;20301;-53
2021/06/04 05:04:10;;;;;;;22.53;15.83;;;19.20;99.90;;;;;;5082837;28;20677;-53
2021/06/04 05:06:37;;;;;;;24.60;14.40;;;19.20;99.90;;;;;;5086571;28;20255;-53
2021/06/04 05:09:06;;;;;;;22.57;16.13;;;19.30;99.90;;;;;;5083575;28;20327;-53
2021/06/04 05:11:34;;;;;;;18.73;13.33;;;19.30;99.90;;;;;;5078654;28;20277;-53
2021/06/04 05:14:00;;;;;;;22.40;13.97;;;19.50;99.90;;;;;;5078749;28;20235;-53
2021/06/04 05:16:27;;;;;;;21.63;15.33;;;19.40;99.90;;;;;;5059875;28;20797;-53
2021/06/04 05:18:54;;;;;;;22.47;13.57;;;19.50;99.90;;;;;;5080105;28;20247;-53
2021/06/04 05:21:22;;;;;;;23.23;14.53;;;19.40;99.90;;;;;;5078613;28;20196;-53
2021/06/04 05:23:49;;;;;;;21.40;14.33;;;19.50;99.90;;;;;;5081278;28;20613;-53
2021/06/04 05:26:15;;;;;;;24.90;16.20;;;19.60;99.90;;;;;;5077748;28;20603;-53
2021/06/04 05:28:42;;;;;;;24.13;14.10;;;19.50;99.90;;;;;;5080735;28;20233;-53
2021/06/04 05:31:11;;;;;;;19.70;13.70;;;19.50;99.90;;;;;;5080139;28;20235;-53
2021/06/04 05:33:41;;;;;;;21.00;13.77;;;19.50;99.90;;;;;;5078343;28;20322;-53
2021/06/04 05:36:16;;;;;;;24.07;14.73;;;19.60;99.90;;;;;;5080658;28;20979;-51
2021/06/04 05:38:44;;;;;;;24.00;14.73;;;19.60;99.90;;;;;;5075656;28;20205;-53
2021/06/04 05:41:12;;;;;;;23.97;15.20;;;19.60;99.90;;;;;;5073260;28;20225;-51
2021/06/04 05:43:41;;;;;;;24.57;16.23;;;19.60;99.90;;;;;;5077316;28;20209;-53
2021/06/04 05:46:10;;;;;;;23.17;16.13;;;19.60;99.90;;;;;;5068261;28;20196;-54
2021/06/04 05:48:38;;;;;;;22.00;15.43;;;19.20;99.90;;;;;;5086388;28;20328;-52
2021/06/04 05:51:08;;;;;;;23.33;15.90;;;19.40;99.90;;;;;;5082979;28;20250;-51
2021/06/04 05:53:38;;;;;;;28.17;15.77;;;19.50;99.90;;;;;;5085936;28;20279;-51
2021/06/04 05:56:06;;;;;;;28.03;16.30;;;19.40;99.90;;;;;;5081295;28;20287;-52
2021/06/04 05:58:33;;;;;;;29.10;16.07;;;19.30;99.90;;;;;;5086569;28;20296;-52
2021/06/04 06:01:02;;;;;;;25.90;16.43;;;19.50;99.90;;;;;;5078853;28;20299;-52
2021/06/04 06:03:32;;;;;;;27.20;16.60;;;19.60;99.90;;;;;;5084845;28;20266;-52
2021/06/04 06:06:00;;;;;;;22.07;15.10;;;19.70;99.90;;;;;;5083905;28;20243;-52
2021/06/04 06:08:27;;;;;;;21.80;14.27;;;19.80;99.90;;;;;;5085211;28;20238;-52
2021/06/04 06:10:54;;;;;;;22.90;14.97;;;19.90;99.90;;;;;;5061804;28;20702;-52
2021/06/04 06:13:22;;;;;;;21.30;14.87;;;20.00;99.90;;;;;;5083705;28;20205;-51
2021/06/04 06:15:50;;;;;;;22.53;14.27;;;20.00;99.90;;;;;;5083142;28;20215;-52
2021/06/04 06:18:18;;;;;;;20.33;13.73;;;20.20;99.90;;;;;;5084764;28;20357;-51
2021/06/04 06:20:45;;;;;;;20.67;13.73;;;20.00;99.90;;;;;;5085440;28;20225;-52
2021/06/04 06:23:14;;;;;;;20.27;13.27;;;20.10;99.90;;;;;;5084034;28;20339;-51
2021/06/04 06:25:47;;;;;;;22.50;13.97;;;20.30;99.90;;;;;;5083228;28;20199;-52
2021/06/04 06:28:18;;;;;;;19.30;13.30;;;20.30;99.90;;;;;;5085229;28;20278;-51
2021/06/04 06:30:46;;;;;;;23.40;14.27;;;20.40;99.90;;;;;;5082711;28;20247;-51
2021/06/04 06:33:14;;;;;;;21.07;13.33;;;20.50;99.90;;;;;;5057874;28;20286;-52
2021/06/04 06:35:51;;;;;;;23.23;12.57;;;20.60;99.90;;;;;;5084040;28;20251;-52
2021/06/04 06:38:19;;;;;;;22.10;13.23;;;20.60;99.90;;;;;;5081510;28;20229;-52
2021/06/04 06:40:47;;;;;;;22.93;12.40;;;20.70;99.90;;;;;;5063865;28;20655;-52
2021/06/04 06:43:18;;;;;;;18.90;13.73;;;20.80;99.90;;;;;;5083355;28;20200;-54
2021/06/04 06:45:46;;;;;;;20.93;11.90;;;20.80;99.90;;;;;;5086177;28;20986;-52
2021/06/04 06:48:13;;;;;;;17.80;12.73;;;20.80;99.90;;;;;;5082037;28;20261;-52
2021/06/04 06:50:41;;;;;;;22.80;11.87;;;20.90;99.90;;;;;;5082520;28;20304;-52
2021/06/04 06:53:11;;;;;;;16.57;10.20;;;21.00;99.90;;;;;;5080717;28;20670;-52
2021/06/04 06:55:41;;;;;;;18.60;12.00;;;21.00;99.90;;;;;;5060546;28;20249;-52
2021/06/04 06:58:11;;;;;;;18.00;12.03;;;21.00;99.90;;;;;;5084001;28;20217;-51
2021/06/04 07:00:41;;;;;;;18.97;12.67;;;21.20;99.90;;;;;;5080098;28;20299;-55
2021/06/04 07:03:09;;;;;;;15.63;11.60;;;21.30;99.90;;;;;;5081706;28;20596;-52
2021/06/04 07:05:38;;;;;;;17.03;11.53;;;21.30;99.90;;;;;;5079843;28;20263;-52
2021/06/04 07:08:06;;;;;;;17.37;12.03;;;21.20;99.90;;;;;;5084865;28;20267;-52
2021/06/04 07:10:35;;;;;;;19.23;11.73;;;21.20;99.90;;;;;;5078406;28;20314;-52
2021/06/04 07:13:06;;;;;;;18.57;12.07;;;21.20;99.90;;;;;;5083558;28;20198;-52
2021/06/04 07:15:33;;;;;;;17.00;11.20;;;21.20;99.90;;;;;;5063503;28;20298;-52
2021/06/04 07:18:01;;;;;;;18.13;12.27;;;21.60;99.90;;;;;;5081302;28;20611;-52
2021/06/04 07:20:30;;;;;;;18.47;11.37;;;21.70;99.90;;;;;;5079941;28;20279;-52
2021/06/04 07:23:00;;;;;;;16.90;11.47;;;22.00;99.90;;;;;;5083176;28;20563;-52
2021/06/04 07:25:30;;;;;;;18.73;12.13;;;22.40;99.90;;;;;;5079992;28;20309;-52
2021/06/04 07:27:57;;;;;;;17.03;11.67;;;22.40;99.90;;;;;;5085722;28;20295;-52
2021/06/04 07:30:31;;;;;;;20.50;12.43;;;22.40;99.90;;;;;;5086672;28;20652;-52
2021/06/04 07:33:01;;;;;;;17.60;13.13;;;22.40;99.90;;;;;;5066420;28;20997;-51
2021/06/04 07:35:31;;;;;;;17.30;11.83;;;22.30;99.90;;;;;;5082446;28;20227;-50
2021/06/04 07:37:58;;;;;;;16.03;11.17;;;22.60;99.90;;;;;;5081578;28;20228;-51
2021/06/04 07:40:28;;;;;;;14.93;10.33;;;22.80;99.90;;;;;;5079361;28;20562;-50
2021/06/04 07:42:57;;;;;;;14.10;9.53;;;23.20;99.90;;;;;;5080739;28;20218;-54
2021/06/04 07:45:27;;;;;;;13.13;8.87;;;24.00;99.90;;;;;;5081019;28;20738;-51
2021/06/04 07:47:54;;;;;;;14.83;9.00;;;25.40;90.60;;;;;;5079326;28;20783;-51
2021/06/04 07:50:22;;;;;;;12.47;9.27;;;25.70;67.50;;;;;;5081223;28;20642;-51
2021/06/04 07:52:48;;;;;;;13.50;9.63;;;26.50;50.00;;;;;;5082436;28;20590;-51
2021/06/04 07:55:16;;;;;;;12.13;9.07;;;25.60;56.90;;;;;;5076148;28;20290;-51
2021/06/04 07:57:43;;;;;;;11.77;8.43;;;26.80;48.10;;;;;;5084880;28;20302;-51
2021/06/04 08:00:23;;;;;;;11.10;7.27;;;26.60;34.30;;;;;;5062118;28;20255;-51
2021/06/04 08:02:50;;;;;;;13.00;7.87;;;26.10;45.10;;;;;;5076011;28;20217;-51
2021/06/04 08:05:17;;;;;;;8.77;7.33;;;26.10;45.10;;;;;;5050561;28;20308;-51
2021/06/04 08:07:44;;;;;;;10.57;6.67;;;26.10;42.90;;;;;;5082330;28;20292;-52
2021/06/04 08:10:12;;;;;;;10.53;7.10;;;27.80;31.30;;;;;;5082794;28;20270;-51
2021/06/04 08:12:39;;;;;;;5.93;5.23;;;28.10;25.00;;;;;;5082553;28;20278;-51
2021/06/04 08:15:14;;;;;;;10.27;6.20;;;28.50;17.90;;;;;;5080120;28;20273;-51
2021/06/04 08:17:42;;;;;;;8.57;7.10;;;28.20;17.70;;;;;;5082603;28;20290;-51
2021/06/04 08:20:11;;;;;;;8.57;7.10;;;27.10;23.80;;;;;;5080806;28;20226;-52
2021/06/04 08:22:43;;;;;;;9.70;6.50;;;26.50;38.00;;;;;;5079479;28;20269;-51
2021/06/04 08:25:12;;;;;;;10.03;6.83;;;26.50;40.50;;;;;;5080455;28;20269;-51
2021/06/04 08:27:40;;;;;;;6.23;5.10;;;26.50;33.30;;;;;;5062466;28;20522;-51
2021/06/04 08:30:09;;;;;;;8.03;6.43;;;27.80;28.80;;;;;;5084628;28;20226;-51
2021/06/04 08:32:36;;;;;;;7.77;5.73;;;28.40;15.70;;;;;;5079393;28;20563;-51
2021/06/04 08:35:06;;;;;;;8.47;5.77;;;27.10;27.90;;;;;;5074603;28;20306;-51
2021/06/04 08:37:33;;;;;;;11.43;7.37;;;28.50;22.00;;;;;;5072034;28;20642;-51
2021/06/04 08:40:00;;;;;;;6.85;6.15;;;28.50;15.60;;;;;;5078775;28;20238;-51
2021/06/04 08:42:27;;;;;;;8.90;6.70;;;27.20;21.40;;;;;;5063150;28;20268;-51
2021/06/04 08:44:56;;;;;;;6.93;5.83;;;26.90;22.70;;;;;;5065793;28;20332;-51
2021/06/04 08:47:26;;;;;;;11.93;7.57;;;26.60;31.20;;;;;;5080663;28;20642;-51
2021/06/04 08:50:00;;;;;;;8.35;5.03;;;27.50;24.60;;;;;;5068246;28;20693;-51
2021/06/04 08:52:27;;;;;;;6.63;5.10;;;28.50;17.00;;;;;;5065064;28;20250;-51
2021/06/04 08:55:35;;;;;;;8.77;5.85;;;28.80;15.90;;;;;;5072102;28;20577;-51
2021/06/04 08:58:25;;;;;;;7.10;5.55;;;29.10;12.50;;;;;;5069037;28;20199;-51
2021/06/04 09:00:58;;;;;;;11.57;7.50;;;29.10;15.00;;;;;;5071933;28;20232;-51
2021/06/04 09:03:27;;;;;;;9.23;6.72;;;30.20;6.70;;;;;;5070484;28;20196;-51
2021/06/04 09:05:58;;;;;;;7.65;6.07;;;30.40;4.90;;;;;;5068509;28;20212;-51
2021/06/04 09:08:36;;;;;;;7.03;4.95;;;31.00;5.50;;;;;;5068537;28;20196;-52
2021/06/04 09:11:09;;;;;;;9.70;5.90;;;31.80;1.00;;;;;;5074981;28;20298;-52
2021/06/04 09:13:38;;;;;;;8.65;5.20;;;31.50;1.00;;;;;;5071073;28;20222;-51
2021/06/04 09:16:23;;;;;;;9.73;6.70;;;31.80;1.00;;;;;;5059316;28;20195;-52
2021/06/04 09:19:04;;;;;;;7.50;4.80;;;31.30;1.00;;;;;;5067389;28;20301;-51
2021/06/04 09:21:34;;;;;;;8.38;5.60;;;31.30;1.00;;;;;;5064139;28;20231;-51
2021/06/04 09:24:07;;;;;;;7.63;6.88;;;31.50;1.00;;;;;;5070713;28;20598;-52
2021/06/04 09:26:35;;;;;;;9.07;6.15;;;31.10;1.00;;;;;;5062494;28;20253;-52
2021/06/04 09:29:02;;;;;;;7.15;6.10;;;31.50;1.00;;;;;;5065020;28;20228;-52
2021/06/04 09:31:42;;;;;;;5.78;4.97;;;31.50;1.00;;;;;;5066116;28;20709;-51
2021/06/04 09:34:17;;;;;;;8.45;5.45;;;31.90;1.00;;;;;;5064127;28;20192;-51
2021/06/04 09:37:25;;;;;;;8.10;7.00;;;31.80;1.00;;;;;;5068461;28;20218;-51
2021/06/04 09:40:07;;;;;;;10.60;6.82;;;32.00;1.00;;;;;;5064949;28;20208;-52
2021/06/04 09:42:34;;;;;;;9.20;8.10;;;32.00;1.00;;;;;;5061904;28;20484;-51
2021/06/04 09:45:14;;;;;;;12.32;9.57;;;31.00;1.00;;;;;;5064098;28;20781;-51
2021/06/04 09:48:01;;;;;;;14.80;11.00;;;30.20;1.20;;;;;;5052033;28;20258;-51
2021/06/04 09:50:40;;;;;;;14.30;10.55;;;29.60;9.80;;;;;;5065565;28;20195;-51
2021/06/04 09:53:19;;;;;;;14.07;11.18;;;29.60;10.90;;;;;;5061911;28;20678;-52
2021/06/04 09:56:06;;;;;;;11.93;10.32;;;29.40;12.90;;;;;;5065254;28;20290;-51
2021/06/04 09:59:03;;;;;;;9.50;8.05;;;29.40;8.30;;;;;;5066631;28;20310;-51
2021/06/04 10:01:47;;;;;;;15.70;12.07;;;30.20;6.60;;;;;;5056509;28;20294;-52
2021/06/04 10:04:32;;;;;;;20.63;12.45;;;29.40;10.10;;;;;;5068133;28;20188;-51
2021/06/04 10:07:13;;;;;;;16.15;11.48;;;28.70;18.10;;;;;;5071185;28;20203;-51
2021/06/04 10:09:43;;;;;;;17.35;11.73;;;28.70;14.10;;;;;;5060050;28;20743;-52
2021/06/04 10:12:31;;;;;;;12.70;10.88;;;28.60;19.80;;;;;;5066809;28;20223;-52
2021/06/04 10:15:02;;;;;;;14.52;11.55;;;29.20;11.30;;;;;;5069152;28;20347;-51
2021/06/04 10:19:58;;;;;;;12.97;10.53;;;28.30;15.50;;;;;;5066650;28;20298;-51
2021/06/04 10:22:40;;;;;;;14.73;9.60;;;28.40;16.50;;;;;;5066582;28;20298;-51
2021/06/04 10:25:06;;;;;;;13.98;11.20;;;29.40;8.40;;;;;;5067352;28;20295;-51
2021/06/04 10:27:41;;;;;;;16.67;11.60;;;28.60;8.30;;;;;;5072808;28;20587;-51
2021/06/04 10:30:35;;;;;;;11.82;9.10;;;27.90;12.50;;;;;;5071928;28;20246;-51
2021/06/04 10:33:13;;;;;;;11.32;9.10;;;28.10;16.00;;;;;;5062336;28;20262;-51
2021/06/04 10:35:46;;;;;;;11.05;9.48;;;28.40;22.40;;;;;;5060311;28;20287;-51
2021/06/04 10:38:25;;;;;;;12.55;9.57;;;29.10;14.60;;;;;;5073591;28;20199;-51
2021/06/04 10:41:09;;;;;;;15.30;10.85;;;29.20;12.50;;;;;;5063402;28;20199;-51
2021/06/04 10:43:51;;;;;;;16.60;10.73;;;29.20;8.00;;;;;;5062406;28;20204;-51
2021/06/04 10:46:38;;;;;;;12.73;10.30;;;28.90;10.30;;;;;;5069098;28;20318;-51
2021/06/04 10:49:44;;;;;;;10.53;7.53;;;29.30;10.20;;;;;;5077368;28;20234;-51
2021/06/04 10:52:31;;;;;;;12.27;9.13;;;29.90;8.20;;;;;;5084703;28;20223;-51
2021/06/04 10:55:19;;;;;;;6.73;5.00;;;30.20;5.20;;;;;;5078916;28;20226;-51
2021/06/04 10:57:50;;;;;;;7.97;5.43;;;30.20;3.30;;;;;;5084973;28;20234;-51
2021/06/04 11:00:26;;;;;;;9.93;7.17;;;30.40;1.00;;;;;;5083175;28;20663;-51
2021/06/04 11:03:23;;;;;;;8.23;7.13;;;29.70;1.00;;;;;;5065418;28;20279;-51
2021/06/04 11:06:08;;;;;;;8.90;6.20;;;29.60;1.00;;;;;;5084605;28;20277;-52
2021/06/04 11:08:49;;;;;;;8.43;5.43;;;30.30;1.00;;;;;;5085127;28;20234;-51
2021/06/04 11:11:46;;;;;;;7.27;5.63;;;31.10;1.00;;;;;;5081849;28;20226;-51
2021/06/04 11:14:49;;;;;;;8.63;6.47;;;30.60;1.00;;;;;;5082204;28;20214;-51
2021/06/04 11:17:23;;;;;;;5.60;4.23;;;30.40;1.00;;;;;;4980342;28;20690;-51
2021/06/04 11:19:53;;;;;;;8.20;6.33;;;32.10;1.00;;;;;;4984082;28;20853;-52
2021/06/04 11:22:32;;;;;;;8.17;5.17;;;31.20;1.00;;;;;;4983632;28;20302;-60
2021/06/04 11:25:36;;;;;;;5.73;4.27;;;31.30;1.00;;;;;;4981729;28;20252;-52
2021/06/04 11:28:26;;;;;;;6.67;4.57;;;32.50;1.00;;;;;;4980960;28;20293;-52
2021/06/04 11:30:56;;;;;;;4.90;3.75;;;32.90;1.00;;;;;;4947862;28;20817;-52
2021/06/04 11:33:29;;;;;;;7.63;5.10;;;33.20;1.00;;;;;;4982836;28;20757;-52
2021/06/04 11:36:02;;;;;;;6.63;4.47;;;32.90;1.00;;;;;;4983943;28;20754;-52
2021/06/04 11:38:43;;;;;;;5.60;4.72;;;33.50;1.00;;;;;;4982286;28;20810;-52
2021/06/04 11:41:15;;;;;;;6.60;5.22;;;33.30;1.00;;;;;;4979155;28;20286;-51
2021/06/04 11:43:45;;;;;;;6.53;5.28;;;33.20;1.00;;;;;;4984370;28;20268;-52
2021/06/04 11:46:15;;;;;;;4.60;4.10;;;32.60;1.00;;;;;;4982005;28;20245;-52
2021/06/04 11:49:03;;;;;;;5.38;4.80;;;31.90;1.00;;;;;;4970512;28;20256;-52
2021/06/04 11:51:36;;;;;;;9.10;6.25;;;32.60;1.00;;;;;;5021621;28;20235;-51
2021/06/04 11:54:39;;;;;;;10.20;5.50;;;31.80;1.00;;;;;;5059115;28;20285;-52
2021/06/04 11:57:42;;;;;;;6.38;5.47;;;31.70;1.00;;;;;;5054661;28;20550;-52
2021/06/04 12:00:37;;;;;;;6.90;4.03;;;31.20;1.00;;;;;;5029380;28;20236;-51
2021/06/04 12:03:09;;;;;;;6.15;4.28;;;31.30;1.00;;;;;;5052786;28;20208;-51
2021/06/04 12:05:47;;;;;;;5.53;3.40;;;31.90;1.00;;;;;;5035552;28;20337;-51
2021/06/04 12:08:29;;;;;;;6.53;4.13;;;32.80;1.00;;;;;;5043153;28;20196;-51
2021/06/04 12:11:00;;;;;;;3.80;3.45;;;32.80;1.00;;;;;;5054304;28;20282;-51
2021/06/04 12:13:33;;;;;;;6.70;4.93;;;32.80;1.00;;;;;;5051148;28;20200;-51
2021/06/04 12:16:18;;;;;;;6.30;5.15;;;33.00;1.00;;;;;;5052125;28;20206;-51
2021/06/04 12:19:14;;;;;;;7.07;4.63;;;31.00;1.00;;;;;;5055711;28;20408;-51
2021/06/04 12:21:44;;;;;;;5.95;3.67;;;31.40;1.00;;;;;;5059215;28;20301;-51
2021/06/04 12:24:20;;;;;;;7.90;4.97;;;32.40;1.00;;;;;;5054013;28;20231;-51
2021/06/04 12:26:48;;;;;;;5.90;4.63;;;31.60;1.00;;;;;;5056702;28;20297;-51
2021/06/04 12:29:20;;;;;;;7.55;4.72;;;31.20;1.00;;;;;;5046101;28;20224;-51
2021/06/04 12:31:53;;;;;;;6.25;4.32;;;31.00;1.00;;;;;;5058106;28;20192;-52
2021/06/04 12:34:36;;;;;;;5.80;4.28;;;32.10;1.00;;;;;;5049906;28;20191;-52
2021/06/04 12:37:17;;;;;;;4.57;4.03;;;32.40;1.00;;;;;;5056114;28;20199;-52
2021/06/04 12:40:06;;;;;;;7.28;3.60;;;31.50;1.00;;;;;;5061021;28;20298;-51
2021/06/04 12:42:44;;;;;;;3.97;3.50;;;32.30;1.00;;;;;;5044089;28;20973;-52
2021/06/04 12:45:20;;;;;;;4.20;3.13;;;33.10;1.00;;;;;;5047692;28;20286;-52
2021/06/04 12:48:11;;;;;;;4.78;3.25;;;33.00;1.00;;;;;;5059632;28;20295;-52
2021/06/04 12:50:41;;;;;;;4.60;2.92;;;32.20;1.00;;;;;;5055834;28;20667;-52
2021/06/04 12:53:08;;;;;;;4.90;2.40;;;31.90;1.00;;;;;;5066568;28;20287;-52
2021/06/04 12:55:37;;;;;;;3.40;3.10;;;31.60;1.00;;;;;;5055515;28;20292;-51
2021/06/04 12:58:19;;;;;;;5.40;3.33;;;30.80;1.00;;;;;;5065043;28;20638;-52
2021/06/04 13:00:46;;;;;;;7.13;3.90;;;30.50;1.00;;;;;;5065347;28;20191;-52
2021/06/04 13:03:30;;;;;;;6.47;3.40;;;30.40;1.00;;;;;;5055398;28;20203;-52
2021/06/04 13:05:58;;;;;;;5.07;3.60;;;31.10;1.00;;;;;;5063143;28;20211;-51
2021/06/04 13:08:33;;;;;;;6.70;4.32;;;31.80;1.00;;;;;;5062337;28;20297;-51
2021/06/04 13:11:02;;;;;;;4.47;3.58;;;32.20;1.00;;;;;;5058784;28;20578;-52
2021/06/04 13:13:46;;;;;;;5.63;4.47;;;32.30;1.00;;;;;;5060608;28;20228;-52